Guest
แชร์ หัวข้อ โพสต์โดย อ่าน ตอบ โพสต์ล่าสุด
Noomm 1,173 3 12/01/2015 16:52:19
Unicorn 1,590 28 12/01/2015 16:17:12
Tee8899 1,385 9 12/01/2015 14:57:31
Emerald01 1,522 9 12/01/2015 14:09:07
Nongbenzamak 819 0 12/01/2015 13:32:59
Otologear 1,564 6 12/01/2015 13:03:34
Nickky18 2,149 4 12/01/2015 11:28:28
I~love~IU 2,270 15 12/01/2015 11:26:49
ruscello 1,193 2 12/01/2015 08:47:42
jakrit2007 2,789 22 12/01/2015 00:52:38
Passanai 826 2 12/01/2015 00:31:20
viewna 1,158 1 11/01/2015 23:16:12
Nickky18 2,202 40 11/01/2015 22:11:56
alarbeday 1,061 2 11/01/2015 22:04:47
Noomm 1,218 14 11/01/2015 21:52:59
master 3,901 8 11/01/2015 21:35:18
เหน่งบา 1,831 9 11/01/2015 20:59:23
bewee 2,185 3 11/01/2015 18:55:30
Kanna 1,022 6 11/01/2015 17:22:35
peterkungz 913 2 11/01/2015 13:56:27
pee 952 5 11/01/2015 13:38:52
Five 4,263 14 11/01/2015 10:52:19
sleep_y 2,173 3 11/01/2015 10:50:28
nopphong 1,666 12 11/01/2015 09:07:37
fahfahhaha 938 0 11/01/2015 08:58:51
qwerty 1,638 13 11/01/2015 01:02:00
boy 807 2 11/01/2015 00:58:54
deksuankub 1,559 15 11/01/2015 00:44:17
alarbeday 1,209 6 11/01/2015 00:32:37
โอ้เอ้ 5,160 9 10/01/2015 23:53:15
neostar 1,195 5 10/01/2015 23:45:18
นายมั่นคง 6,142 39 10/01/2015 23:28:48
เหน่งบา 1,068 10 10/01/2015 22:07:26
Saharat51 925 2 10/01/2015 21:54:35
easymod 1,422 1 10/01/2015 20:40:37
neostar 1,250 3 10/01/2015 20:18:41
Dew 1,392 3 10/01/2015 20:12:09
mrannop1997 859 1 10/01/2015 20:11:19
K6991 798 1 10/01/2015 20:03:30
player 988 1 10/01/2015 20:01:21
tissue_punch 924 1 10/01/2015 20:00:20
kasidit pimsaku... 830 1 10/01/2015 19:58:41
wolfman101 1,629 11 10/01/2015 19:52:56
GopGap09 1,604 2 10/01/2015 18:33:15
sleep_y 707 1 10/01/2015 16:14:14
นายมั่นคง 9,196 91 10/01/2015 15:53:12
sanpasilp 816 0 10/01/2015 14:08:41
yowza 969 1 10/01/2015 12:42:21
kuckic 1,436 3 10/01/2015 12:35:24
templeboy92 1,096 2 10/01/2015 11:17:18
25,451 - 25,500 of 89,998 items : << 505506507508509510511512513514515 >>

ช่องทางการติดต่ออื่น

  • Munkonggadget
  • Munkonggadget Reviews
  • Munkonggadget Reviews
  • Munkonggadget Contact Us